sensor_id;sensor_type;location;lat;lon;timestamp;P1;durP1;ratioP1;P2;durP2;ratioP2
14191;SDS011;7177;48.572;7.838;2023-04-01T00:02:16;4.80;;;2.07;;
14191;SDS011;7177;48.572;7.838;2023-04-01T00:04:42;7.17;;;1.60;;
14191;SDS011;7177;48.572;7.838;2023-04-01T00:07:08;4.50;;;1.63;;
14191;SDS011;7177;48.572;7.838;2023-04-01T00:09:34;4.37;;;1.50;;
14191;SDS011;7177;48.572;7.838;2023-04-01T00:12:00;3.77;;;1.23;;
14191;SDS011;7177;48.572;7.838;2023-04-01T00:14:25;5.00;;;1.60;;
14191;SDS011;7177;48.572;7.838;2023-04-01T00:16:51;3.53;;;1.33;;
14191;SDS011;7177;48.572;7.838;2023-04-01T00:19:17;2.10;;;1.27;;
14191;SDS011;7177;48.572;7.838;2023-04-01T00:21:43;5.83;;;1.83;;
14191;SDS011;7177;48.572;7.838;2023-04-01T00:24:09;4.10;;;1.13;;
14191;SDS011;7177;48.572;7.838;2023-04-01T00:26:34;3.10;;;1.30;;
14191;SDS011;7177;48.572;7.838;2023-04-01T00:29:00;5.07;;;1.37;;
14191;SDS011;7177;48.572;7.838;2023-04-01T00:31:26;2.33;;;1.83;;
14191;SDS011;7177;48.572;7.838;2023-04-01T00:33:51;3.23;;;0.70;;
14191;SDS011;7177;48.572;7.838;2023-04-01T00:36:18;1.83;;;0.93;;
14191;SDS011;7177;48.572;7.838;2023-04-01T00:38:46;2.43;;;1.10;;
14191;SDS011;7177;48.572;7.838;2023-04-01T00:41:13;1.93;;;0.90;;
14191;SDS011;7177;48.572;7.838;2023-04-01T00:43:43;1.67;;;0.90;;
14191;SDS011;7177;48.572;7.838;2023-04-01T00:46:11;1.90;;;0.77;;
14191;SDS011;7177;48.572;7.838;2023-04-01T00:48:38;3.97;;;1.20;;
14191;SDS011;7177;48.572;7.838;2023-04-01T00:51:07;2.47;;;1.00;;
14191;SDS011;7177;48.572;7.838;2023-04-01T00:53:37;1.50;;;0.70;;
14191;SDS011;7177;48.572;7.838;2023-04-01T00:56:09;2.57;;;1.03;;
14191;SDS011;7177;48.572;7.838;2023-04-01T00:58:38;1.03;;;0.80;;
14191;SDS011;7177;48.572;7.838;2023-04-01T01:01:08;1.43;;;0.87;;
14191;SDS011;7177;48.572;7.838;2023-04-01T01:03:35;2.07;;;0.80;;
14191;SDS011;7177;48.572;7.838;2023-04-01T01:06:11;3.27;;;1.00;;
14191;SDS011;7177;48.572;7.838;2023-04-01T01:11:40;0.50;;;0.50;;
14191;SDS011;7177;48.572;7.838;2023-04-01T01:17:14;1.27;;;0.80;;
14191;SDS011;7177;48.572;7.838;2023-04-01T01:28:15;1.07;;;0.50;;
14191;SDS011;7177;48.572;7.838;2023-04-01T01:31:02;0.70;;;0.70;;
14191;SDS011;7177;48.572;7.838;2023-04-01T01:36:15;0.50;;;0.50;;
14191;SDS011;7177;48.572;7.838;2023-04-01T01:38:43;1.60;;;0.50;;
14191;SDS011;7177;48.572;7.838;2023-04-01T01:41:11;0.87;;;0.50;;
14191;SDS011;7177;48.572;7.838;2023-04-01T01:43:42;1.10;;;0.60;;
14191;SDS011;7177;48.572;7.838;2023-04-01T01:46:13;0.60;;;0.40;;
14191;SDS011;7177;48.572;7.838;2023-04-01T01:48:42;1.30;;;0.90;;
14191;SDS011;7177;48.572;7.838;2023-04-01T01:51:09;2.20;;;0.60;;
14191;SDS011;7177;48.572;7.838;2023-04-01T01:53:35;0.97;;;0.53;;
14191;SDS011;7177;48.572;7.838;2023-04-01T01:56:01;0.50;;;0.50;;
14191;SDS011;7177;48.572;7.838;2023-04-01T01:58:28;2.70;;;0.80;;
14191;SDS011;7177;48.572;7.838;2023-04-01T02:01:00;1.20;;;1.10;;
14191;SDS011;7177;48.572;7.838;2023-04-01T02:03:31;1.03;;;0.60;;
14191;SDS011;7177;48.572;7.838;2023-04-01T02:06:00;2.13;;;0.70;;
14191;SDS011;7177;48.572;7.838;2023-04-01T02:11:04;0.87;;;0.77;;
14191;SDS011;7177;48.572;7.838;2023-04-01T02:13:51;1.30;;;0.53;;
14191;SDS011;7177;48.572;7.838;2023-04-01T02:16:27;0.50;;;0.50;;
14191;SDS011;7177;48.572;7.838;2023-04-01T02:18:59;1.30;;;0.60;;
14191;SDS011;7177;48.572;7.838;2023-04-01T02:21:27;1.40;;;0.80;;
14191;SDS011;7177;48.572;7.838;2023-04-01T02:23:56;2.60;;;1.10;;
14191;SDS011;7177;48.572;7.838;2023-04-01T02:26:24;1.67;;;0.90;;
14191;SDS011;7177;48.572;7.838;2023-04-01T02:28:51;3.60;;;1.20;;
14191;SDS011;7177;48.572;7.838;2023-04-01T02:31:19;2.90;;;1.30;;
14191;SDS011;7177;48.572;7.838;2023-04-01T02:33:45;3.60;;;1.00;;
14191;SDS011;7177;48.572;7.838;2023-04-01T02:36:12;3.03;;;1.20;;
14191;SDS011;7177;48.572;7.838;2023-04-01T02:38:39;2.60;;;1.13;;
14191;SDS011;7177;48.572;7.838;2023-04-01T02:41:06;3.00;;;1.30;;
14191;SDS011;7177;48.572;7.838;2023-04-01T02:43:32;3.23;;;1.53;;
14191;SDS011;7177;48.572;7.838;2023-04-01T02:45:57;4.67;;;1.17;;
14191;SDS011;7177;48.572;7.838;2023-04-01T02:48:23;3.30;;;1.23;;
14191;SDS011;7177;48.572;7.838;2023-04-01T02:50:48;1.67;;;0.83;;
14191;SDS011;7177;48.572;7.838;2023-04-01T02:53:14;2.10;;;1.03;;
14191;SDS011;7177;48.572;7.838;2023-04-01T02:55:40;3.80;;;1.20;;
14191;SDS011;7177;48.572;7.838;2023-04-01T02:58:06;3.77;;;1.40;;
14191;SDS011;7177;48.572;7.838;2023-04-01T03:00:32;4.27;;;1.53;;
14191;SDS011;7177;48.572;7.838;2023-04-01T03:02:57;5.93;;;1.70;;
14191;SDS011;7177;48.572;7.838;2023-04-01T03:05:23;6.70;;;1.80;;
14191;SDS011;7177;48.572;7.838;2023-04-01T03:07:49;5.70;;;1.80;;
14191;SDS011;7177;48.572;7.838;2023-04-01T03:10:14;5.13;;;1.97;;
14191;SDS011;7177;48.572;7.838;2023-04-01T03:12:40;7.53;;;2.07;;
14191;SDS011;7177;48.572;7.838;2023-04-01T03:15:06;8.37;;;2.27;;
14191;SDS011;7177;48.572;7.838;2023-04-01T03:17:32;5.53;;;1.53;;
14191;SDS011;7177;48.572;7.838;2023-04-01T03:19:57;7.53;;;1.93;;
14191;SDS011;7177;48.572;7.838;2023-04-01T03:22:23;7.57;;;2.07;;
14191;SDS011;7177;48.572;7.838;2023-04-01T03:24:49;9.50;;;2.07;;
14191;SDS011;7177;48.572;7.838;2023-04-01T03:27:15;8.43;;;1.90;;
14191;SDS011;7177;48.572;7.838;2023-04-01T03:29:40;6.40;;;1.77;;
14191;SDS011;7177;48.572;7.838;2023-04-01T03:32:06;4.03;;;1.63;;
14191;SDS011;7177;48.572;7.838;2023-04-01T03:34:32;4.10;;;1.50;;
14191;SDS011;7177;48.572;7.838;2023-04-01T03:36:57;6.20;;;1.83;;
14191;SDS011;7177;48.572;7.838;2023-04-01T03:39:23;8.27;;;1.90;;
14191;SDS011;7177;48.572;7.838;2023-04-01T03:41:50;3.90;;;1.50;;
14191;SDS011;7177;48.572;7.838;2023-04-01T03:44:15;6.73;;;2.10;;
14191;SDS011;7177;48.572;7.838;2023-04-01T03:46:41;9.47;;;1.97;;
14191;SDS011;7177;48.572;7.838;2023-04-01T03:49:07;7.27;;;1.93;;
14191;SDS011;7177;48.572;7.838;2023-04-01T03:51:40;3.17;;;1.70;;
14191;SDS011;7177;48.572;7.838;2023-04-01T03:54:07;4.90;;;2.10;;
14191;SDS011;7177;48.572;7.838;2023-04-01T03:56:34;7.73;;;2.10;;
14191;SDS011;7177;48.572;7.838;2023-04-01T03:59:03;5.57;;;1.87;;
14191;SDS011;7177;48.572;7.838;2023-04-01T04:01:31;3.83;;;1.63;;
14191;SDS011;7177;48.572;7.838;2023-04-01T04:03:56;6.07;;;1.80;;
14191;SDS011;7177;48.572;7.838;2023-04-01T04:06:22;4.03;;;1.60;;
14191;SDS011;7177;48.572;7.838;2023-04-01T04:08:49;4.87;;;1.90;;
14191;SDS011;7177;48.572;7.838;2023-04-01T04:11:15;4.47;;;1.40;;
14191;SDS011;7177;48.572;7.838;2023-04-01T04:13:42;7.20;;;1.60;;
14191;SDS011;7177;48.572;7.838;2023-04-01T04:16:08;5.87;;;1.60;;
14191;SDS011;7177;48.572;7.838;2023-04-01T04:18:34;4.60;;;1.57;;
14191;SDS011;7177;48.572;7.838;2023-04-01T04:21:01;5.33;;;1.50;;
14191;SDS011;7177;48.572;7.838;2023-04-01T04:23:27;4.00;;;1.27;;
14191;SDS011;7177;48.572;7.838;2023-04-01T04:28:21;2.10;;;1.20;;
14191;SDS011;7177;48.572;7.838;2023-04-01T04:30:47;1.87;;;0.90;;
14191;SDS011;7177;48.572;7.838;2023-04-01T04:33:12;1.47;;;0.90;;
14191;SDS011;7177;48.572;7.838;2023-04-01T04:35:38;2.73;;;0.87;;
14191;SDS011;7177;48.572;7.838;2023-04-01T04:38:03;3.33;;;0.97;;
14191;SDS011;7177;48.572;7.838;2023-04-01T04:40:29;1.03;;;0.90;;
14191;SDS011;7177;48.572;7.838;2023-04-01T04:42:54;1.17;;;0.80;;
14191;SDS011;7177;48.572;7.838;2023-04-01T04:45:20;1.40;;;0.83;;
14191;SDS011;7177;48.572;7.838;2023-04-01T04:47:45;3.13;;;0.80;;
14191;SDS011;7177;48.572;7.838;2023-04-01T04:50:11;2.07;;;0.70;;
14191;SDS011;7177;48.572;7.838;2023-04-01T04:52:37;2.03;;;0.80;;
14191;SDS011;7177;48.572;7.838;2023-04-01T04:55:03;2.80;;;0.90;;
14191;SDS011;7177;48.572;7.838;2023-04-01T04:57:29;1.17;;;0.90;;
14191;SDS011;7177;48.572;7.838;2023-04-01T04:59:54;2.80;;;0.90;;
14191;SDS011;7177;48.572;7.838;2023-04-01T05:02:20;1.73;;;0.83;;
14191;SDS011;7177;48.572;7.838;2023-04-01T05:04:46;2.47;;;1.23;;
14191;SDS011;7177;48.572;7.838;2023-04-01T05:07:11;3.43;;;1.60;;
14191;SDS011;7177;48.572;7.838;2023-04-01T05:09:37;3.40;;;1.53;;
14191;SDS011;7177;48.572;7.838;2023-04-01T05:12:02;2.63;;;1.23;;
14191;SDS011;7177;48.572;7.838;2023-04-01T05:14:28;5.67;;;1.50;;
14191;SDS011;7177;48.572;7.838;2023-04-01T05:16:54;2.63;;;1.30;;
14191;SDS011;7177;48.572;7.838;2023-04-01T05:19:19;4.40;;;1.27;;
14191;SDS011;7177;48.572;7.838;2023-04-01T05:21:45;5.10;;;1.40;;
14191;SDS011;7177;48.572;7.838;2023-04-01T05:24:11;3.17;;;1.40;;
14191;SDS011;7177;48.572;7.838;2023-04-01T05:26:36;1.83;;;1.30;;
14191;SDS011;7177;48.572;7.838;2023-04-01T05:29:03;3.30;;;1.17;;
14191;SDS011;7177;48.572;7.838;2023-04-01T05:31:29;2.30;;;1.10;;
14191;SDS011;7177;48.572;7.838;2023-04-01T05:33:55;1.97;;;1.00;;
14191;SDS011;7177;48.572;7.838;2023-04-01T05:36:21;3.60;;;1.00;;
14191;SDS011;7177;48.572;7.838;2023-04-01T05:38:46;1.63;;;1.00;;
14191;SDS011;7177;48.572;7.838;2023-04-01T05:41:12;5.23;;;1.20;;
14191;SDS011;7177;48.572;7.838;2023-04-01T05:43:39;2.00;;;1.03;;
14191;SDS011;7177;48.572;7.838;2023-04-01T05:46:05;3.40;;;1.33;;
14191;SDS011;7177;48.572;7.838;2023-04-01T05:48:32;1.87;;;0.87;;
14191;SDS011;7177;48.572;7.838;2023-04-01T05:50:59;5.97;;;1.60;;
14191;SDS011;7177;48.572;7.838;2023-04-01T05:53:25;2.53;;;1.10;;
14191;SDS011;7177;48.572;7.838;2023-04-01T05:55:51;2.43;;;1.10;;
14191;SDS011;7177;48.572;7.838;2023-04-01T05:58:16;3.97;;;1.10;;
14191;SDS011;7177;48.572;7.838;2023-04-01T06:00:42;2.70;;;1.20;;
14191;SDS011;7177;48.572;7.838;2023-04-01T06:03:08;2.67;;;1.20;;
14191;SDS011;7177;48.572;7.838;2023-04-01T06:05:41;2.40;;;1.23;;
14191;SDS011;7177;48.572;7.838;2023-04-01T06:08:12;4.07;;;1.60;;
14191;SDS011;7177;48.572;7.838;2023-04-01T06:19:03;3.40;;;1.43;;
14191;SDS011;7177;48.572;7.838;2023-04-01T06:24:35;4.10;;;1.30;;
14191;SDS011;7177;48.572;7.838;2023-04-01T06:30:06;5.23;;;1.30;;
14191;SDS011;7177;48.572;7.838;2023-04-01T06:32:52;3.27;;;1.43;;
14191;SDS011;7177;48.572;7.838;2023-04-01T06:35:27;3.57;;;1.50;;
14191;SDS011;7177;48.572;7.838;2023-04-01T06:38:10;2.60;;;1.40;;
14191;SDS011;7177;48.572;7.838;2023-04-01T06:43:33;6.73;;;1.70;;
14191;SDS011;7177;48.572;7.838;2023-04-01T06:46:20;5.07;;;1.60;;
14191;SDS011;7177;48.572;7.838;2023-04-01T06:54:30;4.80;;;1.70;;
14191;SDS011;7177;48.572;7.838;2023-04-01T06:57:17;5.73;;;1.63;;
14191;SDS011;7177;48.572;7.838;2023-04-01T06:59:56;6.27;;;1.93;;
14191;SDS011;7177;48.572;7.838;2023-04-01T07:02:43;6.07;;;1.70;;
14191;SDS011;7177;48.572;7.838;2023-04-01T07:05:18;7.03;;;1.70;;
14191;SDS011;7177;48.572;7.838;2023-04-01T07:07:46;4.80;;;1.60;;
14191;SDS011;7177;48.572;7.838;2023-04-01T07:12:54;6.17;;;2.10;;
14191;SDS011;7177;48.572;7.838;2023-04-01T07:15:42;5.70;;;2.03;;
14191;SDS011;7177;48.572;7.838;2023-04-01T07:18:22;5.90;;;1.90;;
14191;SDS011;7177;48.572;7.838;2023-04-01T07:20:59;8.13;;;2.50;;
14191;SDS011;7177;48.572;7.838;2023-04-01T07:23:28;5.13;;;1.63;;
14191;SDS011;7177;48.572;7.838;2023-04-01T07:26:04;8.83;;;1.87;;
14191;SDS011;7177;48.572;7.838;2023-04-01T07:28:39;5.93;;;1.80;;
14191;SDS011;7177;48.572;7.838;2023-04-01T07:34:09;9.40;;;2.33;;
14191;SDS011;7177;48.572;7.838;2023-04-01T07:36:44;5.97;;;1.70;;
14191;SDS011;7177;48.572;7.838;2023-04-01T07:42:14;5.97;;;1.60;;
14191;SDS011;7177;48.572;7.838;2023-04-01T07:45:01;5.93;;;2.00;;
14191;SDS011;7177;48.572;7.838;2023-04-01T07:50:34;3.60;;;1.80;;
14191;SDS011;7177;48.572;7.838;2023-04-01T08:01:24;6.37;;;1.90;;
14191;SDS011;7177;48.572;7.838;2023-04-01T08:07:00;6.73;;;1.63;;
14191;SDS011;7177;48.572;7.838;2023-04-01T08:18:11;4.27;;;1.43;;
14191;SDS011;7177;48.572;7.838;2023-04-01T08:20:45;4.60;;;1.80;;
14191;SDS011;7177;48.572;7.838;2023-04-01T08:26:02;4.67;;;1.57;;
14191;SDS011;7177;48.572;7.838;2023-04-01T08:34:25;3.23;;;1.60;;
14191;SDS011;7177;48.572;7.838;2023-04-01T08:37:22;3.87;;;1.50;;
14191;SDS011;7177;48.572;7.838;2023-04-01T08:39:58;3.17;;;1.60;;
14191;SDS011;7177;48.572;7.838;2023-04-01T08:42:39;3.03;;;1.43;;
14191;SDS011;7177;48.572;7.838;2023-04-01T08:45:39;4.70;;;1.60;;
14191;SDS011;7177;48.572;7.838;2023-04-01T08:48:28;4.33;;;1.47;;
14191;SDS011;7177;48.572;7.838;2023-04-01T08:51:19;3.93;;;1.70;;
14191;SDS011;7177;48.572;7.838;2023-04-01T08:56:50;1.70;;;1.10;;
14191;SDS011;7177;48.572;7.838;2023-04-01T09:05:01;3.57;;;1.77;;
14191;SDS011;7177;48.572;7.838;2023-04-01T09:07:50;3.43;;;1.37;;
14191;SDS011;7177;48.572;7.838;2023-04-01T09:18:55;2.67;;;1.50;;
14191;SDS011;7177;48.572;7.838;2023-04-01T09:21:29;3.77;;;1.70;;
14191;SDS011;7177;48.572;7.838;2023-04-01T09:24:26;3.60;;;1.53;;
14191;SDS011;7177;48.572;7.838;2023-04-01T09:27:27;4.33;;;1.40;;
14191;SDS011;7177;48.572;7.838;2023-04-01T09:35:38;2.13;;;1.03;;
14191;SDS011;7177;48.572;7.838;2023-04-01T09:41:28;2.37;;;1.20;;
14191;SDS011;7177;48.572;7.838;2023-04-01T09:46:37;4.60;;;1.33;;
14191;SDS011;7177;48.572;7.838;2023-04-01T09:54:36;3.73;;;1.47;;
14191;SDS011;7177;48.572;7.838;2023-04-01T09:58:03;2.00;;;1.10;;
14191;SDS011;7177;48.572;7.838;2023-04-01T10:05:48;2.20;;;1.10;;
14191;SDS011;7177;48.572;7.838;2023-04-01T10:08:49;3.73;;;1.30;;
14191;SDS011;7177;48.572;7.838;2023-04-01T10:14:34;4.93;;;1.20;;
14191;SDS011;7177;48.572;7.838;2023-04-01T10:20:01;3.13;;;1.63;;
14191;SDS011;7177;48.572;7.838;2023-04-01T10:25:51;1.17;;;0.93;;
14191;SDS011;7177;48.572;7.838;2023-04-01T10:28:44;1.33;;;1.23;;
14191;SDS011;7177;48.572;7.838;2023-04-01T10:37:23;2.87;;;1.40;;
14191;SDS011;7177;48.572;7.838;2023-04-01T10:54:14;2.60;;;1.30;;
14191;SDS011;7177;48.572;7.838;2023-04-01T11:00:01;1.63;;;1.20;;
14191;SDS011;7177;48.572;7.838;2023-04-01T11:12:08;3.33;;;1.00;;
14191;SDS011;7177;48.572;7.838;2023-04-01T11:23:13;1.37;;;0.80;;
14191;SDS011;7177;48.572;7.838;2023-04-01T11:33:42;1.07;;;0.90;;
14191;SDS011;7177;48.572;7.838;2023-04-01T11:36:54;2.97;;;0.90;;
14191;SDS011;7177;48.572;7.838;2023-04-01T11:39:31;1.57;;;0.90;;
14191;SDS011;7177;48.572;7.838;2023-04-01T11:44:47;1.70;;;1.10;;
14191;SDS011;7177;48.572;7.838;2023-04-01T11:47:51;1.60;;;1.13;;
14191;SDS011;7177;48.572;7.838;2023-04-01T11:53:47;1.30;;;1.20;;
14191;SDS011;7177;48.572;7.838;2023-04-01T12:02:16;2.13;;;0.90;;
14191;SDS011;7177;48.572;7.838;2023-04-01T12:15:16;2.13;;;1.03;;
14191;SDS011;7177;48.572;7.838;2023-04-01T12:18:03;1.27;;;0.93;;
14191;SDS011;7177;48.572;7.838;2023-04-01T12:20:49;5.13;;;1.73;;
14191;SDS011;7177;48.572;7.838;2023-04-01T12:23:22;3.70;;;1.10;;
14191;SDS011;7177;48.572;7.838;2023-04-01T12:36:56;1.97;;;1.40;;
14191;SDS011;7177;48.572;7.838;2023-04-01T12:42:28;3.20;;;1.43;;
14191;SDS011;7177;48.572;7.838;2023-04-01T12:45:28;1.57;;;1.20;;
14191;SDS011;7177;48.572;7.838;2023-04-01T12:53:27;1.70;;;1.40;;
14191;SDS011;7177;48.572;7.838;2023-04-01T12:59:06;1.70;;;1.20;;
14191;SDS011;7177;48.572;7.838;2023-04-01T13:09:52;1.87;;;1.40;;
14191;SDS011;7177;48.572;7.838;2023-04-01T13:18:13;2.20;;;0.90;;
14191;SDS011;7177;48.572;7.838;2023-04-01T13:23:28;4.63;;;1.63;;
14191;SDS011;7177;48.572;7.838;2023-04-01T13:29:21;2.83;;;1.03;;
14191;SDS011;7177;48.572;7.838;2023-04-01T13:32:05;1.87;;;1.20;;
14191;SDS011;7177;48.572;7.838;2023-04-01T13:43:28;2.40;;;1.23;;
14191;SDS011;7177;48.572;7.838;2023-04-01T13:51:26;1.40;;;1.20;;
14191;SDS011;7177;48.572;7.838;2023-04-01T13:54:23;2.03;;;1.23;;
14191;SDS011;7177;48.572;7.838;2023-04-01T14:00:23;2.80;;;1.30;;
14191;SDS011;7177;48.572;7.838;2023-04-01T14:11:35;1.73;;;1.00;;
14191;SDS011;7177;48.572;7.838;2023-04-01T14:20:25;2.50;;;1.33;;
14191;SDS011;7177;48.572;7.838;2023-04-01T14:22:57;3.80;;;1.40;;
14191;SDS011;7177;48.572;7.838;2023-04-01T14:25:50;3.10;;;1.20;;
14191;SDS011;7177;48.572;7.838;2023-04-01T14:28:35;3.63;;;1.77;;
14191;SDS011;7177;48.572;7.838;2023-04-01T14:34:00;1.90;;;1.20;;
14191;SDS011;7177;48.572;7.838;2023-04-01T14:45:35;3.97;;;1.50;;
14191;SDS011;7177;48.572;7.838;2023-04-01T14:50:55;1.97;;;0.87;;
14191;SDS011;7177;48.572;7.838;2023-04-01T14:53:29;2.63;;;1.50;;
14191;SDS011;7177;48.572;7.838;2023-04-01T14:55:59;2.63;;;2.00;;
14191;SDS011;7177;48.572;7.838;2023-04-01T14:58:47;2.90;;;2.10;;
14191;SDS011;7177;48.572;7.838;2023-04-01T15:04:10;3.77;;;2.00;;
14191;SDS011;7177;48.572;7.838;2023-04-01T15:06:50;1.83;;;1.03;;
14191;SDS011;7177;48.572;7.838;2023-04-01T15:15:03;2.50;;;1.40;;
14191;SDS011;7177;48.572;7.838;2023-04-01T15:27:55;2.73;;;1.40;;
14191;SDS011;7177;48.572;7.838;2023-04-01T15:36:10;2.83;;;1.60;;
14191;SDS011;7177;48.572;7.838;2023-04-01T15:38:49;2.60;;;1.40;;
14191;SDS011;7177;48.572;7.838;2023-04-01T15:49:55;1.93;;;1.30;;
14191;SDS011;7177;48.572;7.838;2023-04-01T15:57:38;1.60;;;1.47;;
14191;SDS011;7177;48.572;7.838;2023-04-01T16:00:11;3.27;;;1.30;;
14191;SDS011;7177;48.572;7.838;2023-04-01T16:02:47;3.03;;;1.33;;
14191;SDS011;7177;48.572;7.838;2023-04-01T16:10:51;4.00;;;1.83;;
14191;SDS011;7177;48.572;7.838;2023-04-01T16:24:24;2.40;;;1.53;;
14191;SDS011;7177;48.572;7.838;2023-04-01T16:27:09;2.53;;;1.30;;
14191;SDS011;7177;48.572;7.838;2023-04-01T16:32:28;2.60;;;1.13;;
14191;SDS011;7177;48.572;7.838;2023-04-01T16:35:20;1.30;;;1.20;;
14191;SDS011;7177;48.572;7.838;2023-04-01T16:37:49;3.03;;;1.40;;
14191;SDS011;7177;48.572;7.838;2023-04-01T16:48:45;1.90;;;1.30;;
14191;SDS011;7177;48.572;7.838;2023-04-01T16:51:22;1.43;;;1.10;;
14191;SDS011;7177;48.572;7.838;2023-04-01T16:54:05;2.07;;;1.40;;
14191;SDS011;7177;48.572;7.838;2023-04-01T16:59:40;5.20;;;1.37;;
14191;SDS011;7177;48.572;7.838;2023-04-01T17:02:16;1.33;;;1.03;;
14191;SDS011;7177;48.572;7.838;2023-04-01T17:04:54;4.13;;;1.57;;
14191;SDS011;7177;48.572;7.838;2023-04-01T17:12:49;4.33;;;1.60;;
14191;SDS011;7177;48.572;7.838;2023-04-01T17:15:38;8.70;;;2.17;;
14191;SDS011;7177;48.572;7.838;2023-04-01T17:18:14;3.20;;;2.07;;
14191;SDS011;7177;48.572;7.838;2023-04-01T17:21:39;4.23;;;2.40;;
14191;SDS011;7177;48.572;7.838;2023-04-01T17:29:56;4.87;;;2.60;;
14191;SDS011;7177;48.572;7.838;2023-04-01T17:32:49;3.90;;;3.20;;
14191;SDS011;7177;48.572;7.838;2023-04-01T17:35:43;4.57;;;2.47;;
14191;SDS011;7177;48.572;7.838;2023-04-01T17:52:15;4.30;;;2.80;;
14191;SDS011;7177;48.572;7.838;2023-04-01T17:55:54;6.43;;;3.07;;
14191;SDS011;7177;48.572;7.838;2023-04-01T17:58:28;6.13;;;2.70;;
14191;SDS011;7177;48.572;7.838;2023-04-01T18:03:52;4.20;;;2.67;;
14191;SDS011;7177;48.572;7.838;2023-04-01T18:06:45;5.20;;;2.70;;
14191;SDS011;7177;48.572;7.838;2023-04-01T18:09:23;7.93;;;3.20;;
14191;SDS011;7177;48.572;7.838;2023-04-01T18:12:06;4.57;;;2.73;;
14191;SDS011;7177;48.572;7.838;2023-04-01T18:20:02;5.80;;;2.40;;
14191;SDS011;7177;48.572;7.838;2023-04-01T18:22:56;5.27;;;2.50;;
14191;SDS011;7177;48.572;7.838;2023-04-01T18:30:54;3.60;;;1.90;;
14191;SDS011;7177;48.572;7.838;2023-04-01T18:39:19;3.93;;;1.90;;
14191;SDS011;7177;48.572;7.838;2023-04-01T18:42:06;2.53;;;1.90;;
14191;SDS011;7177;48.572;7.838;2023-04-01T18:44:46;3.50;;;2.47;;
14191;SDS011;7177;48.572;7.838;2023-04-01T18:47:21;4.40;;;2.50;;
14191;SDS011;7177;48.572;7.838;2023-04-01T18:53:35;4.03;;;2.53;;
14191;SDS011;7177;48.572;7.838;2023-04-01T18:55:57;7.73;;;3.63;;
14191;SDS011;7177;48.572;7.838;2023-04-01T18:58:35;8.47;;;3.57;;
14191;SDS011;7177;48.572;7.838;2023-04-01T19:01:12;7.40;;;3.57;;
14191;SDS011;7177;48.572;7.838;2023-04-01T19:03:52;8.17;;;4.27;;
14191;SDS011;7177;48.572;7.838;2023-04-01T19:09:45;7.20;;;3.70;;
14191;SDS011;7177;48.572;7.838;2023-04-01T19:15:00;9.10;;;5.57;;
14191;SDS011;7177;48.572;7.838;2023-04-01T19:17:54;8.73;;;5.17;;
14191;SDS011;7177;48.572;7.838;2023-04-01T19:20:34;7.40;;;2.60;;
14191;SDS011;7177;48.572;7.838;2023-04-01T19:23:13;3.50;;;1.67;;
14191;SDS011;7177;48.572;7.838;2023-04-01T19:25:49;3.57;;;2.00;;
14191;SDS011;7177;48.572;7.838;2023-04-01T19:31:42;4.37;;;2.00;;
14191;SDS011;7177;48.572;7.838;2023-04-01T19:42:18;2.43;;;1.60;;
14191;SDS011;7177;48.572;7.838;2023-04-01T19:53:28;5.27;;;2.63;;
14191;SDS011;7177;48.572;7.838;2023-04-01T19:56:01;4.17;;;2.30;;
14191;SDS011;7177;48.572;7.838;2023-04-01T19:59:16;5.17;;;1.93;;
14191;SDS011;7177;48.572;7.838;2023-04-01T20:01:45;5.87;;;1.77;;
14191;SDS011;7177;48.572;7.838;2023-04-01T20:04:23;3.70;;;1.80;;
14191;SDS011;7177;48.572;7.838;2023-04-01T20:09:53;2.97;;;1.80;;
14191;SDS011;7177;48.572;7.838;2023-04-01T20:18:05;4.67;;;2.30;;
14191;SDS011;7177;48.572;7.838;2023-04-01T20:20:51;3.63;;;2.10;;
14191;SDS011;7177;48.572;7.838;2023-04-01T20:27:08;4.23;;;2.20;;
14191;SDS011;7177;48.572;7.838;2023-04-01T20:29:41;3.70;;;2.17;;
14191;SDS011;7177;48.572;7.838;2023-04-01T20:32:31;4.10;;;1.37;;
14191;SDS011;7177;48.572;7.838;2023-04-01T20:37:41;3.37;;;1.70;;
14191;SDS011;7177;48.572;7.838;2023-04-01T20:45:57;3.00;;;1.63;;
14191;SDS011;7177;48.572;7.838;2023-04-01T20:48:36;2.17;;;1.40;;
14191;SDS011;7177;48.572;7.838;2023-04-01T20:51:33;2.17;;;1.60;;
14191;SDS011;7177;48.572;7.838;2023-04-01T21:14:24;4.30;;;1.53;;
14191;SDS011;7177;48.572;7.838;2023-04-01T21:17:06;2.83;;;1.50;;
14191;SDS011;7177;48.572;7.838;2023-04-01T21:37:10;2.70;;;1.60;;
14191;SDS011;7177;48.572;7.838;2023-04-01T21:42:32;2.43;;;1.43;;
14191;SDS011;7177;48.572;7.838;2023-04-01T21:50:55;1.27;;;1.10;;
14191;SDS011;7177;48.572;7.838;2023-04-01T21:53:55;2.40;;;1.20;;
14191;SDS011;7177;48.572;7.838;2023-04-01T22:00:00;1.70;;;1.17;;
14191;SDS011;7177;48.572;7.838;2023-04-01T22:02:51;3.33;;;1.30;;
14191;SDS011;7177;48.572;7.838;2023-04-01T22:05:27;1.70;;;1.10;;
14191;SDS011;7177;48.572;7.838;2023-04-01T22:07:59;1.87;;;1.30;;
14191;SDS011;7177;48.572;7.838;2023-04-01T22:10:34;1.50;;;1.23;;
14191;SDS011;7177;48.572;7.838;2023-04-01T22:13:14;1.77;;;1.40;;
14191;SDS011;7177;48.572;7.838;2023-04-01T22:18:47;2.20;;;1.70;;
14191;SDS011;7177;48.572;7.838;2023-04-01T22:24:24;2.20;;;1.70;;
14191;SDS011;7177;48.572;7.838;2023-04-01T22:29:51;2.30;;;1.60;;
14191;SDS011;7177;48.572;7.838;2023-04-01T22:32:47;2.80;;;1.87;;
14191;SDS011;7177;48.572;7.838;2023-04-01T22:37:45;2.80;;;1.70;;
14191;SDS011;7177;48.572;7.838;2023-04-01T22:48:14;1.73;;;1.23;;
14191;SDS011;7177;48.572;7.838;2023-04-01T22:56:34;2.70;;;1.47;;
14191;SDS011;7177;48.572;7.838;2023-04-01T22:59:11;1.90;;;1.23;;
14191;SDS011;7177;48.572;7.838;2023-04-01T23:02:03;2.50;;;1.53;;
14191;SDS011;7177;48.572;7.838;2023-04-01T23:04:39;1.23;;;1.13;;
14191;SDS011;7177;48.572;7.838;2023-04-01T23:07:56;1.70;;;1.30;;
14191;SDS011;7177;48.572;7.838;2023-04-01T23:10:02;2.20;;;1.20;;
14191;SDS011;7177;48.572;7.838;2023-04-01T23:12:35;3.27;;;1.20;;
14191;SDS011;7177;48.572;7.838;2023-04-01T23:15:01;1.47;;;1.30;;
14191;SDS011;7177;48.572;7.838;2023-04-01T23:17:33;1.60;;;1.10;;
14191;SDS011;7177;48.572;7.838;2023-04-01T23:26:02;1.57;;;1.20;;
14191;SDS011;7177;48.572;7.838;2023-04-01T23:31:27;4.73;;;1.07;;
14191;SDS011;7177;48.572;7.838;2023-04-01T23:34:17;2.27;;;1.00;;
14191;SDS011;7177;48.572;7.838;2023-04-01T23:37:12;1.57;;;1.10;;
14191;SDS011;7177;48.572;7.838;2023-04-01T23:39:54;2.43;;;1.10;;
14191;SDS011;7177;48.572;7.838;2023-04-01T23:42:26;0.90;;;0.90;;
14191;SDS011;7177;48.572;7.838;2023-04-01T23:44:57;2.07;;;1.00;;
14191;SDS011;7177;48.572;7.838;2023-04-01T23:49:58;1.30;;;1.20;;
14191;SDS011;7177;48.572;7.838;2023-04-01T23:52:30;1.70;;;1.10;;
14191;SDS011;7177;48.572;7.838;2023-04-01T23:55:08;1.97;;;1.10;;
14191;SDS011;7177;48.572;7.838;2023-04-01T23:57:37;1.10;;;1.00;;
